Time;durP1;ratioP1;P1;durP2;ratioP2;P2;SDS_P1;SDS_P2;PMS_P1;PMS_P2;Temp;Humidity;BMP_temperature;BMP_pressure;BME280_temperature;BME280_humidity;BME280_pressure;Samples;Min_cycle;Max_cycle;Signal;HPM_P1;HPM_P2
2023/04/24 00:00:44;;;;;;;;;;;;;;;19.68;59.10;98110.41;2087720;28;19925;-46
2023/04/24 00:01:46;;;;;;;;;;;;;;;19.67;59.05;98108.78;2088649;28;19948;-48
2023/04/24 00:02:47;;;;;;;;;;;;;;;19.65;59.38;98108.13;2086370;28;19933;-49
2023/04/24 00:03:49;;;;;;;;;;;;;;;19.63;59.43;98102.16;2086130;28;19990;-48
2023/04/24 00:04:49;;;;;;;;;;;;;;;19.62;59.42;98105.91;2087079;28;19925;-48
2023/04/24 00:05:50;;;;;;;;;;;;;;;19.63;59.28;98096.75;2086989;28;19931;-49
2023/04/24 00:06:53;;;;;;;;;;;;;;;19.64;59.41;98109.19;2087294;28;19940;-48
2023/04/24 00:07:55;;;;;;;;;;;;;;;19.63;59.23;98097.56;2084570;28;19929;-48
2023/04/24 00:08:55;;;;;;;;;;;;;;;19.61;59.45;98091.63;2087629;28;20019;-49
2023/04/24 00:09:57;;;;;;;;;;;;;;;19.63;59.02;98092.19;2084904;28;19932;-49
2023/04/24 00:10:57;;;;;;;;;;;;;;;19.64;59.02;98084.97;2086213;28;19987;-49
2023/04/24 00:11:59;;;;;;;;;;;;;;;19.64;59.16;98087.66;2087352;28;19936;-50
2023/04/24 00:13:00;;;;;;;;;;;;;;;19.62;59.20;98085.19;2086763;28;19928;-49
2023/04/24 00:14:03;;;;;;;;;;;;;;;19.63;59.37;98080.63;2086669;28;20011;-48
2023/04/24 00:15:03;;;;;;;;;;;;;;;19.61;59.27;98083.56;2085497;28;19928;-50
2023/04/24 00:16:05;;;;;;;;;;;;;;;19.61;59.17;98080.00;2086291;28;19933;-47
2023/04/24 00:17:06;;;;;;;;;;;;;;;19.60;59.30;98081.06;2088547;28;19973;-49
2023/04/24 00:18:07;;;;;;;;;;;;;;;19.58;58.96;98073.22;2089990;28;19937;-49
2023/04/24 00:19:07;;;;;;;;;;;;;;;19.58;59.30;98075.91;2087293;28;19932;-48
2023/04/24 00:20:11;;;;;;;;;;;;;;;19.57;59.27;98086.91;2087801;28;19986;-50
2023/04/24 00:21:12;;;;;;;;;;;;;;;19.59;59.33;98082.94;2086409;28;19925;-47
2023/04/24 00:22:14;;;;;;;;;;;;;;;19.60;59.12;98068.44;2086457;28;20023;-51
2023/04/24 00:23:14;;;;;;;;;;;;;;;19.59;59.07;98068.69;2085849;28;19928;-46
2023/04/24 00:24:16;;;;;;;;;;;;;;;19.60;59.39;98051.47;2085428;28;19924;-50
2023/04/24 00:25:16;;;;;;;;;;;;;;;19.60;59.33;98051.47;2086926;28;19964;-49
2023/04/24 00:26:18;;;;;;;;;;;;;;;19.60;59.13;98049.59;2086939;28;19934;-49
2023/04/24 00:27:18;;;;;;;;;;;;;;;19.60;59.04;98043.41;2084884;28;19982;-47
2023/04/24 00:28:19;;;;;;;;;;;;;;;19.59;59.11;98036.41;2087014;28;20387;-55
2023/04/24 00:29:21;;;;;;;;;;;;;;;19.58;59.25;98046.31;2089410;28;19928;-47
2023/04/24 00:30:23;;;;;;;;;;;;;;;19.57;59.31;98046.56;2086777;28;19925;-49
2023/04/24 00:31:24;;;;;;;;;;;;;;;19.56;59.35;98050.31;2088400;28;20332;-51
2023/04/24 00:32:25;;;;;;;;;;;;;;;19.56;59.09;98048.44;2088267;28;19928;-50
2023/04/24 00:33:26;;;;;;;;;;;;;;;19.57;59.39;98050.06;2088066;28;19932;-49
2023/04/24 00:34:27;;;;;;;;;;;;;;;19.58;59.08;98040.94;2086193;28;19933;-49
2023/04/24 00:35:27;;;;;;;;;;;;;;;19.59;59.06;98047.16;2088377;28;20398;-50
2023/04/24 00:36:30;;;;;;;;;;;;;;;19.58;58.99;98045.50;2088039;28;19936;-49
2023/04/24 00:37:32;;;;;;;;;;;;;;;19.56;59.11;98044.91;2088032;28;20079;-48
2023/04/24 00:38:32;;;;;;;;;;;;;;;19.57;59.14;98041.16;2087343;28;19929;-50
2023/04/24 00:39:34;;;;;;;;;;;;;;;19.58;58.94;98045.50;2087074;28;19924;-48
2023/04/24 00:40:34;;;;;;;;;;;;;;;19.57;59.37;98038.47;2087815;28;19929;-48
2023/04/24 00:41:36;;;;;;;;;;;;;;;19.56;58.88;98029.59;2088763;28;21332;-49
2023/04/24 00:42:37;;;;;;;;;;;;;;;19.57;59.08;98028.53;2087185;28;20505;-49
2023/04/24 00:43:38;;;;;;;;;;;;;;;19.58;59.20;98022.09;2087410;28;19928;-48
2023/04/24 00:44:40;;;;;;;;;;;;;;;19.56;58.84;98018.03;2084385;28;20444;-49
2023/04/24 00:45:42;;;;;;;;;;;;;;;19.58;59.13;98018.59;2085785;28;19951;-51
2023/04/24 00:46:42;;;;;;;;;;;;;;;19.58;58.97;98021.28;2085256;28;19929;-50
2023/04/24 00:47:44;;;;;;;;;;;;;;;19.57;59.08;98020.47;2086877;28;20023;-51
2023/04/24 00:48:45;;;;;;;;;;;;;;;19.58;58.91;98023.97;2085834;28;20789;-49
2023/04/24 00:49:46;;;;;;;;;;;;;;;19.56;59.27;98026.91;2086086;28;19928;-51
2023/04/24 00:50:46;;;;;;;;;;;;;;;19.56;59.20;98021.53;2085928;28;19936;-49
2023/04/24 00:51:49;;;;;;;;;;;;;;;19.57;59.08;98022.34;2086618;28;19943;-49
2023/04/24 00:52:50;;;;;;;;;;;;;;;19.54;58.88;98015.53;2084802;28;20516;-47
2023/04/24 00:53:51;;;;;;;;;;;;;;;19.55;58.78;98011.78;2084557;28;19963;-49
2023/04/24 00:54:52;;;;;;;;;;;;;;;19.55;59.12;98017.16;2085648;28;19928;-51
2023/04/24 00:55:53;;;;;;;;;;;;;;;19.55;58.81;98013.66;2086154;28;19986;-51
2023/04/24 00:56:54;;;;;;;;;;;;;;;19.53;59.00;98007.69;2087691;28;19932;-47
2023/04/24 00:57:55;;;;;;;;;;;;;;;19.54;59.18;98002.09;2087205;28;19928;-48
2023/04/24 00:58:56;;;;;;;;;;;;;;;19.56;59.09;98012.63;2087947;28;19924;-51
2023/04/24 00:59:59;;;;;;;;;;;;;;;19.58;58.86;98013.22;2085415;28;19924;-49
2023/04/24 01:01:00;;;;;;;;;;;;;;;19.55;59.15;98010.97;2083344;28;19929;-49
2023/04/24 01:02:02;;;;;;;;;;;;;;;19.55;59.14;98008.28;2086908;28;19928;-47
2023/04/24 01:03:03;;;;;;;;;;;;;;;19.55;59.06;98008.28;2089045;28;19928;-49
2023/04/24 01:04:07;;;;;;;;;;;;;;;19.54;59.13;98012.03;2088067;28;19932;-48
2023/04/24 01:05:07;;;;;;;;;;;;;;;19.54;58.94;98009.34;2088878;28;20455;-50
2023/04/24 01:06:10;;;;;;;;;;;;;;;19.54;58.90;98015.53;2086279;28;19968;-50
2023/04/24 01:07:11;;;;;;;;;;;;;;;19.54;59.09;98010.16;2088248;28;19936;-49
2023/04/24 01:08:12;;;;;;;;;;;;;;;19.55;59.01;98013.66;2086519;28;19928;-48
2023/04/24 01:09:14;;;;;;;;;;;;;;;19.55;58.82;98010.97;2085995;28;19929;-49
2023/04/24 01:10:17;;;;;;;;;;;;;;;19.53;58.80;97999.63;2086582;28;19928;-49
2023/04/24 01:11:17;;;;;;;;;;;;;;;19.52;58.88;98004.19;2087882;28;19924;-48
2023/04/24 01:12:19;;;;;;;;;;;;;;;19.53;58.85;98002.31;2087749;28;20378;-50
2023/04/24 01:13:20;;;;;;;;;;;;;;;19.54;58.79;98001.28;2087645;28;20020;-50
2023/04/24 01:14:22;;;;;;;;;;;;;;;19.54;58.95;98006.66;2086764;28;20504;-49
2023/04/24 01:15:23;;;;;;;;;;;;;;;19.54;58.62;98002.09;2088040;28;19933;-49
2023/04/24 01:16:25;;;;;;;;;;;;;;;19.51;59.02;97999.84;2087426;28;19985;-48
2023/04/24 01:17:26;;;;;;;;;;;;;;;19.52;58.67;97992.59;2085345;28;19982;-49
2023/04/24 01:18:28;;;;;;;;;;;;;;;19.50;58.61;97992.00;2083695;28;19932;-47
2023/04/24 01:19:29;;;;;;;;;;;;;;;19.52;58.91;97987.22;2090224;28;19935;-50
2023/04/24 01:20:31;;;;;;;;;;;;;;;19.53;58.93;97983.47;2086122;28;20035;-52
2023/04/24 01:21:34;;;;;;;;;;;;;;;19.53;58.82;97970.03;2087301;28;19929;-53
2023/04/24 01:22:37;;;;;;;;;;;;;;;19.51;58.64;97964.88;2089404;28;19948;-53
2023/04/24 01:23:38;;;;;;;;;;;;;;;19.51;58.77;97956.00;2085430;28;20705;-51
2023/04/24 01:24:39;;;;;;;;;;;;;;;19.51;58.93;97951.44;2088524;28;19932;-52
2023/04/24 01:25:40;;;;;;;;;;;;;;;19.51;58.83;97950.63;2090102;28;19928;-50
2023/04/24 01:26:41;;;;;;;;;;;;;;;19.49;58.84;97945.47;2088426;28;19929;-50
2023/04/24 01:27:42;;;;;;;;;;;;;;;19.48;58.77;97948.41;2088672;28;19933;-53
2023/04/24 01:28:43;;;;;;;;;;;;;;;19.47;58.89;97944.84;2086758;28;19931;-50
2023/04/24 01:29:44;;;;;;;;;;;;;;;19.46;59.02;97948.59;2087568;28;20010;-52
2023/04/24 01:30:45;;;;;;;;;;;;;;;19.49;58.88;97952.72;2088681;28;20358;-48
2023/04/24 01:31:46;;;;;;;;;;;;;;;19.48;58.67;97953.78;2087764;28;19975;-50
2023/04/24 01:32:47;;;;;;;;;;;;;;;19.47;58.89;97963.69;2085556;28;19928;-49
2023/04/24 01:33:48;;;;;;;;;;;;;;;19.49;58.88;97968.84;2085946;28;19929;-50
2023/04/24 01:34:50;;;;;;;;;;;;;;;19.48;58.97;97977.97;2086453;28;19932;-51
2023/04/24 01:35:53;;;;;;;;;;;;;;;19.49;58.82;97985.00;2086596;28;19982;-50
2023/04/24 01:36:55;;;;;;;;;;;;;;;19.50;58.99;97986.63;2086823;28;19964;-47
2023/04/24 01:37:57;;;;;;;;;;;;;;;19.52;58.77;97982.66;2084726;28;19928;-48
2023/04/24 01:38:59;;;;;;;;;;;;;;;19.51;58.90;97983.72;2086102;28;19928;-50
2023/04/24 01:39:59;;;;;;;;;;;;;;;19.50;58.86;97994.69;2086055;28;20008;-48
2023/04/24 01:41:01;;;;;;;;;;;;;;;19.50;58.57;97992.00;2087411;28;19929;-47
2023/04/24 01:42:02;;;;;;;;;;;;;;;19.49;58.86;97993.06;2088080;28;20013;-48
2023/04/24 01:43:03;;;;;;;;;;;;;;;19.49;58.87;97993.88;2088256;28;20089;-49
2023/04/24 01:44:04;;;;;;;;;;;;;;;19.49;58.71;97999.25;2086744;28;20000;-48
2023/04/24 01:45:06;;;;;;;;;;;;;;;19.49;58.54;97999.25;2087848;28;20661;-48
2023/04/24 01:46:06;;;;;;;;;;;;;;;19.51;58.57;98001.72;2086505;28;19929;-48
2023/04/24 01:47:08;;;;;;;;;;;;;;;19.51;58.68;97999.03;2088359;28;20021;-52
2023/04/24 01:48:09;;;;;;;;;;;;;;;19.52;58.47;98003.34;2086178;28;20047;-49
2023/04/24 01:49:10;;;;;;;;;;;;;;;19.48;58.52;98003.00;2086198;28;19929;-49
2023/04/24 01:50:11;;;;;;;;;;;;;;;19.47;58.65;97998.66;2086080;28;19932;-50
2023/04/24 01:51:12;;;;;;;;;;;;;;;19.47;58.52;97990.56;2085894;28;19970;-53
2023/04/24 01:52:12;;;;;;;;;;;;;;;19.47;58.74;97989.75;2087004;28;21111;-55
2023/04/24 01:53:15;;;;;;;;;;;;;;;19.46;58.64;97978.19;2087479;28;19932;-51
2023/04/24 01:54:16;;;;;;;;;;;;;;;19.45;58.58;97971.19;2086753;28;19929;-54
2023/04/24 01:55:17;;;;;;;;;;;;;;;19.47;58.89;97968.25;2084312;28;20090;-49
2023/04/24 01:56:18;;;;;;;;;;;;;;;19.47;58.67;97969.06;2089140;28;20002;-51
2023/04/24 01:57:19;;;;;;;;;;;;;;;19.47;58.65;97974.44;2087785;28;19932;-54
2023/04/24 01:58:20;;;;;;;;;;;;;;;19.45;58.59;97964.97;2088811;28;20295;-55
2023/04/24 01:59:22;;;;;;;;;;;;;;;19.46;59.11;97963.94;2085183;28;20391;-54
2023/04/24 02:00:23;;;;;;;;;;;;;;;19.43;58.60;97963.31;2088284;28;20019;-52
2023/04/24 02:01:25;;;;;;;;;;;;;;;19.43;58.62;97966.00;2087598;28;19978;-49
2023/04/24 02:02:27;;;;;;;;;;;;;;;19.42;58.65;97959.00;2086747;28;20296;-46
2023/04/24 02:03:33;;;;;;;;;;;;;;;19.45;58.86;97956.91;2086855;28;19932;-52
2023/04/24 02:04:33;;;;;;;;;;;;;;;19.42;58.59;97952.81;2087851;28;19924;-52
2023/04/24 02:05:34;;;;;;;;;;;;;;;19.45;58.52;97946.16;2085739;28;19928;-49
2023/04/24 02:06:35;;;;;;;;;;;;;;;19.43;58.67;97951.75;2086235;28;19933;-49
2023/04/24 02:07:36;;;;;;;;;;;;;;;19.42;58.77;97950.94;2088695;28;19928;-50
2023/04/24 02:08:38;;;;;;;;;;;;;;;19.42;58.78;97950.94;2075693;28;20113;-48
2023/04/24 02:09:39;;;;;;;;;;;;;;;19.44;58.82;97948.00;2083222;28;20058;-48
2023/04/24 02:10:40;;;;;;;;;;;;;;;19.41;58.93;97946.56;2084370;28;20358;-50
2023/04/24 02:11:41;;;;;;;;;;;;;;;19.41;58.75;97949.28;2079051;28;19982;-49
2023/04/24 02:12:42;;;;;;;;;;;;;;;19.41;58.71;97946.56;2079930;28;19966;-48
2023/04/24 02:13:43;;;;;;;;;;;;;;;19.41;58.64;97946.56;2083735;28;19955;-50
2023/04/24 02:14:44;;;;;;;;;;;;;;;19.39;58.68;97948.69;2080974;28;20025;-48
2023/04/24 02:15:45;;;;;;;;;;;;;;;19.41;58.72;97953.84;2084163;28;19963;-48
2023/04/24 02:16:46;;;;;;;;;;;;;;;19.39;58.70;97954.06;2082599;28;19978;-47
2023/04/24 02:17:47;;;;;;;;;;;;;;;19.40;58.86;97958.41;2083212;28;19943;-48
2023/04/24 02:18:47;;;;;;;;;;;;;;;19.39;58.93;97962.13;2083864;28;19929;-47
2023/04/24 02:19:49;;;;;;;;;;;;;;;19.40;58.62;97969.16;2085839;28;20607;-48
2023/04/24 02:20:49;;;;;;;;;;;;;;;19.42;58.75;97971.63;2084796;28;20325;-49
2023/04/24 02:21:51;;;;;;;;;;;;;;;19.43;58.62;97973.25;2085759;28;19929;-50
2023/04/24 02:22:51;;;;;;;;;;;;;;;19.42;58.42;97977.81;2083564;28;20035;-47
2023/04/24 02:23:54;;;;;;;;;;;;;;;19.41;58.73;97973.47;2081838;28;19940;-50
2023/04/24 02:24:55;;;;;;;;;;;;;;;19.42;58.65;97977.00;2083743;28;19929;-50
2023/04/24 02:25:56;;;;;;;;;;;;;;;19.41;58.54;97969.97;2084919;28;19935;-50
2023/04/24 02:26:57;;;;;;;;;;;;;;;19.40;58.61;97963.78;2083709;28;19963;-48
2023/04/24 02:27:59;;;;;;;;;;;;;;;19.39;58.73;97956.75;2084405;28;19924;-50
2023/04/24 02:28:59;;;;;;;;;;;;;;;19.40;58.79;97958.41;2084183;28;20337;-49
2023/04/24 02:30:01;;;;;;;;;;;;;;;19.39;58.74;97947.88;2081115;28;19932;-52
2023/04/24 02:31:01;;;;;;;;;;;;;;;19.39;58.53;97950.56;2083546;28;19925;-47
2023/04/24 02:32:03;;;;;;;;;;;;;;;19.39;58.40;97943.31;2082843;28;19964;-50
2023/04/24 02:33:03;;;;;;;;;;;;;;;19.40;58.33;97942.25;2080956;28;19929;-51
2023/04/24 02:34:05;;;;;;;;;;;;;;;19.37;58.59;97937.34;2080851;28;19925;-51
2023/04/24 02:35:06;;;;;;;;;;;;;;;19.39;58.54;97939.81;2084451;28;20059;-52
2023/04/24 02:36:07;;;;;;;;;;;;;;;19.37;58.91;97942.72;2086589;28;20359;-53
2023/04/24 02:37:08;;;;;;;;;;;;;;;19.37;58.71;97937.34;2084571;28;20007;-54
2023/04/24 02:38:09;;;;;;;;;;;;;;;19.39;58.53;97939.81;2084123;28;19936;-51
2023/04/24 02:39:11;;;;;;;;;;;;;;;19.37;58.72;97945.41;2086292;28;19929;-52
2023/04/24 02:40:13;;;;;;;;;;;;;;;19.38;58.41;97946.22;2083725;28;20034;-49
2023/04/24 02:41:13;;;;;;;;;;;;;;;19.38;58.37;97952.41;2086208;28;20772;-52
2023/04/24 02:42:15;;;;;;;;;;;;;;;19.39;58.66;97945.19;2084025;28;19955;-51
2023/04/24 02:43:15;;;;;;;;;;;;;;;19.38;58.75;97936.28;2084191;28;19997;-54
2023/04/24 02:44:18;;;;;;;;;;;;;;;19.39;58.70;97937.13;2082449;28;19929;-53
2023/04/24 02:45:18;;;;;;;;;;;;;;;19.37;58.38;97941.91;2083665;28;20366;-52
2023/04/24 02:46:19;;;;;;;;;;;;;;;19.36;58.53;97935.72;2079902;28;20039;-53
2023/04/24 02:47:20;;;;;;;;;;;;;;;19.36;58.38;97922.25;2086400;28;19932;-50
2023/04/24 02:48:21;;;;;;;;;;;;;;;19.36;58.62;97941.09;2082158;28;20268;-53
2023/04/24 02:49:22;;;;;;;;;;;;;;;19.35;58.44;97935.91;2084079;28;19928;-50
2023/04/24 02:50:23;;;;;;;;;;;;;;;19.37;58.49;97936.53;2082458;28;19933;-48
2023/04/24 02:51:24;;;;;;;;;;;;;;;19.34;58.43;97936.97;2083760;28;19998;-52
2023/04/24 02:52:25;;;;;;;;;;;;;;;19.36;58.71;97935.72;2083400;28;19928;-51
2023/04/24 02:53:25;;;;;;;;;;;;;;;19.36;58.45;97938.41;2081754;28;19928;-52
2023/04/24 02:54:28;;;;;;;;;;;;;;;19.34;58.71;97937.78;2080358;28;20021;-51
2023/04/24 02:55:29;;;;;;;;;;;;;;;19.35;58.67;97933.22;2082929;28;19932;-53
2023/04/24 02:56:30;;;;;;;;;;;;;;;19.34;58.72;97928.91;2084173;28;20013;-50
2023/04/24 02:57:31;;;;;;;;;;;;;;;19.33;58.70;97936.13;2084187;28;19973;-51
2023/04/24 02:58:32;;;;;;;;;;;;;;;19.34;58.67;97921.66;2082676;28;20020;-52
2023/04/24 02:59:33;;;;;;;;;;;;;;;19.35;58.52;97923.28;2082338;28;19979;-51
2023/04/24 03:00:35;;;;;;;;;;;;;;;19.34;58.64;97923.53;2083691;28;19929;-52
2023/04/24 03:01:35;;;;;;;;;;;;;;;19.32;58.55;97928.31;2085755;28;20001;-52
2023/04/24 03:02:37;;;;;;;;;;;;;;;19.31;58.82;97927.47;2075973;28;19932;-51
2023/04/24 03:03:37;;;;;;;;;;;;;;;19.32;58.71;97933.69;2083220;28;20047;-50
2023/04/24 03:04:39;;;;;;;;;;;;;;;19.31;58.81;97937.44;2081952;28;20652;-48
2023/04/24 03:05:40;;;;;;;;;;;;;;;19.32;58.73;97936.38;2083970;28;20007;-49
2023/04/24 03:06:41;;;;;;;;;;;;;;;19.33;58.70;97929.94;2080384;28;19928;-51
2023/04/24 03:07:42;;;;;;;;;;;;;;;19.32;58.65;97933.69;2085751;28;20330;-52
2023/04/24 03:08:43;;;;;;;;;;;;;;;19.29;58.80;97924.19;2080524;28;19994;-51
2023/04/24 03:09:45;;;;;;;;;;;;;;;19.34;58.77;97918.16;2084798;28;19981;-51
2023/04/24 03:10:46;;;;;;;;;;;;;;;19.32;58.63;97899.53;2084731;28;19925;-49
2023/04/24 03:11:49;;;;;;;;;;;;;;;19.33;58.29;97886.91;2083913;28;19986;-52
2023/04/24 03:12:50;;;;;;;;;;;;;;;19.30;58.64;97893.56;2081973;28;19947;-52
2023/04/24 03:13:51;;;;;;;;;;;;;;;19.33;58.43;97892.28;2085997;28;19961;-51
2023/04/24 03:14:52;;;;;;;;;;;;;;;19.32;58.40;97890.66;2080018;28;19954;-51
2023/04/24 03:15:53;;;;;;;;;;;;;;;19.31;58.57;97895.22;2084584;28;19989;-51
2023/04/24 03:16:55;;;;;;;;;;;;;;;19.31;58.30;97897.09;2082512;28;19990;-52
2023/04/24 03:17:55;;;;;;;;;;;;;;;19.33;58.35;97898.47;2084296;28;19928;-48
2023/04/24 03:18:57;;;;;;;;;;;;;;;19.29;58.66;97893.81;2081362;28;19936;-50
2023/04/24 03:19:57;;;;;;;;;;;;;;;19.29;58.73;97889.25;2085471;28;20002;-52
2023/04/24 03:20:59;;;;;;;;;;;;;;;19.32;58.53;97891.47;2083437;28;19974;-51
2023/04/24 03:22:01;;;;;;;;;;;;;;;19.31;58.69;97891.72;2082942;28;20378;-53
2023/04/24 03:23:02;;;;;;;;;;;;;;;19.32;58.67;97899.53;2084441;28;19933;-51
2023/04/24 03:24:03;;;;;;;;;;;;;;;19.32;58.48;97898.72;2084490;28;20464;-51
2023/04/24 03:25:08;;;;;;;;;;;;;;;19.31;58.48;97897.91;2084690;28;19925;-49
2023/04/24 03:26:08;;;;;;;;;;;;;;;19.30;58.48;97901.63;2085267;28;19932;-48
2023/04/24 03:27:09;;;;;;;;;;;;;;;19.30;58.46;97892.75;2086079;28;20011;-51
2023/04/24 03:28:10;;;;;;;;;;;;;;;19.29;58.38;97900.00;2085584;28;19932;-51
2023/04/24 03:29:11;;;;;;;;;;;;;;;19.30;58.36;97898.94;2085546;28;19928;-48
2023/04/24 03:30:12;;;;;;;;;;;;;;;19.32;58.47;97898.72;2086067;28;19933;-53
2023/04/24 03:31:15;;;;;;;;;;;;;;;19.34;58.33;97905.53;2085483;28;19925;-49
2023/04/24 03:32:15;;;;;;;;;;;;;;;19.32;58.40;97904.91;2085266;28;19963;-51
2023/04/24 03:33:16;;;;;;;;;;;;;;;19.31;58.57;97900.59;2085931;28;19928;-54
2023/04/24 03:34:17;;;;;;;;;;;;;;;19.30;58.40;97904.31;2082368;28;19982;-52
2023/04/24 03:35:18;;;;;;;;;;;;;;;19.29;58.65;97907.25;2086528;28;19937;-50
2023/04/24 03:36:20;;;;;;;;;;;;;;;19.28;58.79;97892.13;2085279;28;19936;-51
2023/04/24 03:37:20;;;;;;;;;;;;;;;19.28;58.49;97898.38;2086244;28;19973;-50
2023/04/24 03:38:22;;;;;;;;;;;;;;;19.26;58.70;97892.38;2082706;28;20436;-53
2023/04/24 03:39:22;;;;;;;;;;;;;;;19.27;58.65;97894.00;2083519;28;20007;-50
2023/04/24 03:40:25;;;;;;;;;;;;;;;19.26;58.68;97897.75;2086522;28;20240;-49
2023/04/24 03:41:25;;;;;;;;;;;;;;;19.27;58.56;97896.69;2085112;28;19929;-51
2023/04/24 03:42:27;;;;;;;;;;;;;;;19.28;58.59;97900.22;2085350;28;19928;-51
2023/04/24 03:43:27;;;;;;;;;;;;;;;19.26;58.82;97895.06;2085558;28;19985;-48
2023/04/24 03:44:28;;;;;;;;;;;;;;;19.25;58.73;97895.28;2085375;28;20300;-53
2023/04/24 03:45:29;;;;;;;;;;;;;;;19.25;58.38;97890.75;2086319;28;20267;-47
2023/04/24 03:46:30;;;;;;;;;;;;;;;19.25;58.63;97888.06;2084683;28;19929;-51
2023/04/24 03:47:31;;;;;;;;;;;;;;;19.27;58.51;97885.13;2087339;28;19995;-50
2023/04/24 03:48:32;;;;;;;;;;;;;;;19.25;58.70;97876.47;2085794;28;19983;-51
2023/04/24 03:49:33;;;;;;;;;;;;;;;19.27;58.56;97877.88;2083845;27;19929;-53
2023/04/24 03:50:34;;;;;;;;;;;;;;;19.28;58.43;97882.22;2085698;28;19938;-55
2023/04/24 03:51:35;;;;;;;;;;;;;;;19.28;58.45;97881.38;2085550;28;20015;-52
2023/04/24 03:52:36;;;;;;;;;;;;;;;19.26;58.66;97876.25;2085976;28;19929;-52
2023/04/24 03:53:37;;;;;;;;;;;;;;;19.28;58.63;97879.53;2085128;28;19928;-52
2023/04/24 03:54:38;;;;;;;;;;;;;;;19.26;58.39;97875.44;2084661;28;20003;-53
2023/04/24 03:55:40;;;;;;;;;;;;;;;19.25;58.55;97874.63;2081982;28;19932;-48
2023/04/24 03:56:41;;;;;;;;;;;;;;;19.27;58.49;97864.44;2083176;28;19968;-48
2023/04/24 03:57:42;;;;;;;;;;;;;;;19.27;58.43;97860.94;2084295;28;19932;-50
2023/04/24 03:58:43;;;;;;;;;;;;;;;19.26;58.49;97865.50;2085959;28;20325;-49
2023/04/24 03:59:44;;;;;;;;;;;;;;;19.26;58.67;97865.50;2084494;28;20310;-52
2023/04/24 04:00:46;;;;;;;;;;;;;;;19.24;58.58;97858.72;2085701;28;19925;-50
2023/04/24 04:01:46;;;;;;;;;;;;;;;19.24;58.38;97859.53;2084286;28;20440;-48
2023/04/24 04:02:48;;;;;;;;;;;;;;;19.24;58.54;97859.53;2086885;28;19932;-49
2023/04/24 04:03:48;;;;;;;;;;;;;;;19.24;58.73;97858.72;2084542;28;19932;-48
2023/04/24 04:04:50;;;;;;;;;;;;;;;19.25;58.59;97863.88;2084222;28;20524;-51
2023/04/24 04:05:50;;;;;;;;;;;;;;;19.23;58.55;97863.25;2086940;28;19955;-51
2023/04/24 04:06:53;;;;;;;;;;;;;;;19.26;58.46;97865.50;2087075;28;19937;-52
2023/04/24 04:07:53;;;;;;;;;;;;;;;19.26;58.41;97864.69;2084168;28;19939;-51
2023/04/24 04:08:54;;;;;;;;;;;;;;;19.27;58.46;97864.44;2084901;28;19947;-50
2023/04/24 04:09:55;;;;;;;;;;;;;;;19.27;58.60;97861.75;2083634;28;19933;-52
2023/04/24 04:10:58;;;;;;;;;;;;;;;19.25;58.37;97869.25;2086382;28;20543;-50
2023/04/24 04:11:58;;;;;;;;;;;;;;;19.26;58.20;97860.13;2085239;28;19924;-51
2023/04/24 04:13:00;;;;;;;;;;;;;;;19.25;58.56;97866.56;2085154;28;19983;-49
2023/04/24 04:14:00;;;;;;;;;;;;;;;19.24;58.51;97866.78;2083483;28;19929;-54
2023/04/24 04:15:02;;;;;;;;;;;;;;;19.24;58.68;97866.78;2084351;28;19933;-50
2023/04/24 04:16:02;;;;;;;;;;;;;;;19.22;58.40;97869.66;2081732;28;19936;-52
2023/04/24 04:17:04;;;;;;;;;;;;;;;19.19;58.49;97862.91;2084820;28;20031;-52
2023/04/24 04:18:05;;;;;;;;;;;;;;;19.23;58.47;97865.13;2085061;28;20007;-48
2023/04/24 04:19:07;;;;;;;;;;;;;;;19.25;58.48;97863.88;2084116;28;20632;-50
2023/04/24 04:20:09;;;;;;;;;;;;;;;19.20;58.75;97861.03;2085911;28;19977;-48
2023/04/24 04:21:11;;;;;;;;;;;;;;;19.20;58.76;97861.03;2086912;28;19935;-51
2023/04/24 04:22:11;;;;;;;;;;;;;;;19.18;58.67;97857.75;2082092;28;19928;-53
2023/04/24 04:23:13;;;;;;;;;;;;;;;19.22;58.73;97850.03;2084392;28;19989;-48
2023/04/24 04:24:13;;;;;;;;;;;;;;;19.24;58.65;97864.91;2081813;28;20034;-50
2023/04/24 04:25:15;;;;;;;;;;;;;;;19.22;58.46;97858.91;2085736;28;19925;-49
2023/04/24 04:26:18;;;;;;;;;;;;;;;19.21;58.77;97857.28;2085883;28;20008;-50
2023/04/24 04:27:21;;;;;;;;;;;;;;;19.21;58.72;97854.59;2084451;28;19936;-54
2023/04/24 04:28:21;;;;;;;;;;;;;;;19.21;58.74;97862.66;2086491;28;19971;-50
2023/04/24 04:29:23;;;;;;;;;;;;;;;19.22;58.80;97858.91;2085685;28;19928;-51
2023/04/24 04:30:24;;;;;;;;;;;;;;;19.23;58.70;97855.19;2086004;28;19925;-53
2023/04/24 04:31:25;;;;;;;;;;;;;;;19.23;58.42;97860.56;2087496;28;20031;-48
2023/04/24 04:32:26;;;;;;;;;;;;;;;19.21;58.66;97851.91;2087449;28;19944;-51
2023/04/24 04:33:27;;;;;;;;;;;;;;;19.19;58.78;97848.63;2086796;28;19931;-51
2023/04/24 04:34:29;;;;;;;;;;;;;;;19.22;58.67;97850.84;2085132;28;20065;-50
2023/04/24 04:35:29;;;;;;;;;;;;;;;19.20;58.60;97863.72;2085863;28;19929;-54
2023/04/24 04:36:31;;;;;;;;;;;;;;;19.20;58.51;97867.22;2085730;28;19928;-53
2023/04/24 04:37:35;;;;;;;;;;;;;;;19.17;58.51;97865.00;2085823;28;20023;-50
2023/04/24 04:38:36;;;;;;;;;;;;;;;19.21;58.34;97865.34;2088032;28;20011;-50
2023/04/24 04:39:37;;;;;;;;;;;;;;;19.18;58.72;97873.88;2085004;28;19998;-48
2023/04/24 04:40:38;;;;;;;;;;;;;;;19.17;58.60;97872.25;2086163;28;19936;-51
2023/04/24 04:41:40;;;;;;;;;;;;;;;19.16;58.86;97870.56;2082931;28;20929;-49
2023/04/24 04:42:42;;;;;;;;;;;;;;;19.18;58.78;97876.56;2087781;28;19981;-52
2023/04/24 04:43:42;;;;;;;;;;;;;;;19.19;58.49;97881.72;2083921;28;19939;-52
2023/04/24 04:44:44;;;;;;;;;;;;;;;19.18;58.58;97876.56;2085169;28;19928;-49
2023/04/24 04:45:45;;;;;;;;;;;;;;;19.20;58.62;97879.84;2087010;28;19925;-51
2023/04/24 04:46:47;;;;;;;;;;;;;;;19.22;58.73;97879.59;2085100;28;19959;-52
2023/04/24 04:47:47;;;;;;;;;;;;;;;19.20;58.47;97885.22;2085108;28;19928;-52
2023/04/24 04:48:49;;;;;;;;;;;;;;;19.20;58.52;97886.03;2088531;28;20012;-53
2023/04/24 04:49:50;;;;;;;;;;;;;;;19.21;58.57;97881.47;2086148;28;20352;-49
2023/04/24 04:50:52;;;;;;;;;;;;;;;19.20;58.36;97888.72;2086349;28;20046;-49
2023/04/24 04:51:52;;;;;;;;;;;;;;;19.20;58.54;97885.22;2085949;28;20426;-50
2023/04/24 04:52:54;;;;;;;;;;;;;;;19.18;58.45;97890.81;2086647;28;20010;-50
2023/04/24 04:53:54;;;;;;;;;;;;;;;19.19;58.70;97891.63;2086137;28;20027;-50
2023/04/24 04:54:56;;;;;;;;;;;;;;;19.17;58.81;97885.69;2083670;28;19932;-53
2023/04/24 04:55:56;;;;;;;;;;;;;;;19.13;58.46;97884.47;2086541;28;19983;-51
2023/04/24 04:57:00;;;;;;;;;;;;;;;19.13;58.62;97885.28;2078895;28;19932;-51
2023/04/24 04:58:00;;;;;;;;;;;;;;;19.15;58.79;97880.53;2085832;28;19932;-50
2023/04/24 04:59:02;;;;;;;;;;;;;;;19.14;58.69;97886.94;2086359;28;20027;-53
2023/04/24 05:00:04;;;;;;;;;;;;;;;19.12;58.55;97886.34;2086182;28;19929;-51
2023/04/24 05:01:06;;;;;;;;;;;;;;;19.13;58.87;97887.97;2086604;28;20587;-51
2023/04/24 05:02:07;;;;;;;;;;;;;;;19.13;58.59;97884.47;2086130;28;20330;-49
2023/04/24 05:03:08;;;;;;;;;;;;;;;19.14;58.50;97897.69;2085294;28;19962;-52
2023/04/24 05:04:08;;;;;;;;;;;;;;;19.14;58.66;97899.56;2085847;28;19928;-49
2023/04/24 05:05:10;;;;;;;;;;;;;;;19.14;58.61;97896.88;2087767;28;19928;-48
2023/04/24 05:06:11;;;;;;;;;;;;;;;19.13;58.73;97897.91;2086964;28;20062;-51
2023/04/24 05:07:12;;;;;;;;;;;;;;;19.12;58.61;97898.97;2087419;28;20586;-49
2023/04/24 05:08:12;;;;;;;;;;;;;;;19.11;58.79;97897.31;2088527;28;19924;-52
2023/04/24 05:09:14;;;;;;;;;;;;;;;19.13;58.79;97903.28;2086802;28;19928;-48
2023/04/24 05:10:14;;;;;;;;;;;;;;;19.13;58.57;97905.97;2087783;28;19935;-48
2023/04/24 05:11:16;;;;;;;;;;;;;;;19.12;58.46;97905.16;2087481;28;20467;-48
2023/04/24 05:12:18;;;;;;;;;;;;;;;19.12;58.52;97907.03;2083665;28;20832;-48
2023/04/24 05:13:19;;;;;;;;;;;;;;;19.10;58.90;97909.94;2086981;28;19985;-54
2023/04/24 05:14:20;;;;;;;;;;;;;;;19.11;58.44;97905.38;2086590;28;19928;-53
2023/04/24 05:15:21;;;;;;;;;;;;;;;19.11;58.84;97911.59;2087309;28;19925;-51
2023/04/24 05:16:22;;;;;;;;;;;;;;;19.12;58.69;97915.09;2087372;28;20046;-53
2023/04/24 05:17:23;;;;;;;;;;;;;;;19.12;58.58;97912.41;2086402;28;19990;-49
2023/04/24 05:18:24;;;;;;;;;;;;;;;19.12;58.60;97909.72;2086910;28;21307;-50
2023/04/24 05:19:25;;;;;;;;;;;;;;;19.12;58.72;97912.41;2086754;28;19994;-50